createdAt,value
2023-04-07T00:02:23.512Z,5.20
2023-04-07T00:04:48.149Z,5.20
2023-04-07T00:07:12.807Z,5.20
2023-04-07T00:09:37.394Z,5.20
2023-04-07T00:12:03.766Z,5.30
2023-04-07T00:14:28.181Z,5.40
2023-04-07T00:16:52.777Z,5.40
2023-04-07T00:19:17.240Z,5.50
2023-04-07T00:21:41.741Z,5.50
2023-04-07T00:24:06.558Z,5.40
2023-04-07T00:26:32.846Z,5.20
2023-04-07T00:28:59.112Z,5.20
2023-04-07T00:31:23.560Z,5.20
2023-04-07T00:33:49.637Z,5.20
2023-04-07T00:36:14.173Z,5.20
2023-04-07T00:38:38.830Z,5.20
2023-04-07T00:41:03.572Z,5.20
2023-04-07T00:43:28.216Z,5.20
2023-04-07T00:45:54.869Z,5.10
2023-04-07T00:48:19.438Z,5.10
2023-04-07T00:50:44.114Z,5.10
2023-04-07T00:53:08.978Z,5.10
2023-04-07T00:55:33.614Z,5.00
2023-04-07T00:57:58.337Z,5.00
2023-04-07T01:00:23.035Z,5.00
2023-04-07T01:02:57.810Z,5.00
2023-04-07T01:05:29.937Z,5.00
2023-04-07T01:08:02.024Z,4.90
2023-04-07T01:10:34.471Z,4.80
2023-04-07T01:13:18.670Z,4.70
2023-04-07T01:15:49.188Z,4.60
2023-04-07T01:18:23.428Z,4.50
2023-04-07T01:20:51.675Z,4.50
2023-04-07T01:23:24.619Z,4.40
2023-04-07T01:26:05.477Z,4.40
2023-04-07T01:28:50.668Z,4.40
2023-04-07T01:31:18.095Z,4.40
2023-04-07T01:33:46.829Z,4.40
2023-04-07T01:36:12.791Z,4.40
2023-04-07T01:38:38.763Z,4.40
2023-04-07T01:41:04.662Z,4.40
2023-04-07T01:43:30.048Z,4.40
2023-04-07T01:45:57.188Z,4.50
2023-04-07T01:48:23.644Z,4.50
2023-04-07T01:50:48.430Z,4.50
2023-04-07T01:53:13.564Z,4.50
2023-04-07T01:55:38.935Z,4.40
2023-04-07T01:58:07.229Z,4.40
2023-04-07T02:00:34.439Z,4.40
2023-04-07T02:03:10.693Z,4.40
2023-04-07T02:05:40.073Z,4.40
2023-04-07T02:08:09.407Z,4.50
2023-04-07T02:10:38.468Z,4.50
2023-04-07T02:13:05.177Z,4.60
2023-04-07T02:15:31.862Z,4.60
2023-04-07T02:17:59.737Z,4.70
2023-04-07T02:20:25.550Z,4.80
2023-04-07T02:22:51.798Z,4.80
2023-04-07T02:25:24.246Z,4.80
2023-04-07T02:27:51.037Z,4.90
2023-04-07T02:30:16.777Z,5.00
2023-04-07T02:32:42.621Z,5.00
2023-04-07T02:35:08.151Z,5.00
2023-04-07T02:37:32.798Z,5.00
2023-04-07T02:40:00.247Z,5.00
2023-04-07T02:42:25.079Z,5.00
2023-04-07T02:44:49.705Z,5.10
2023-04-07T02:47:14.222Z,5.00
2023-04-07T02:49:38.699Z,5.10
2023-04-07T02:52:04.003Z,5.10
2023-04-07T02:54:28.483Z,5.10
2023-04-07T02:56:54.697Z,5.20
2023-04-07T02:59:19.185Z,5.20
2023-04-07T03:01:43.788Z,5.20
2023-04-07T03:04:08.492Z,5.30
2023-04-07T03:06:33.541Z,5.30
2023-04-07T03:09:04.019Z,5.20
2023-04-07T03:11:28.614Z,5.30
2023-04-07T03:13:56.805Z,5.20
2023-04-07T03:16:22.069Z,5.20
2023-04-07T03:18:57.316Z,5.20
2023-04-07T03:21:21.903Z,5.20
2023-04-07T03:23:46.692Z,5.30
2023-04-07T03:26:11.245Z,5.40
2023-04-07T03:28:36.476Z,5.40
2023-04-07T03:31:02.709Z,5.40
2023-04-07T03:33:28.069Z,5.50
2023-04-07T03:35:53.094Z,5.50
2023-04-07T03:38:18.791Z,5.50
2023-04-07T03:40:43.449Z,5.50
2023-04-07T03:43:12.480Z,5.50
2023-04-07T03:46:19.809Z,5.50
2023-04-07T03:49:06.803Z,5.50
2023-04-07T03:51:31.370Z,5.50
2023-04-07T03:53:56.774Z,5.50
2023-04-07T03:56:35.109Z,5.50
2023-04-07T03:59:00.408Z,5.50
2023-04-07T04:01:29.691Z,5.50
2023-04-07T04:03:57.373Z,5.50
2023-04-07T04:06:29.057Z,5.40
2023-04-07T04:09:02.378Z,5.40
2023-04-07T04:11:29.598Z,5.60
2023-04-07T04:13:57.961Z,5.60
2023-04-07T04:16:22.957Z,5.70
2023-04-07T04:18:49.352Z,5.70
2023-04-07T04:21:14.853Z,5.70
2023-04-07T04:23:42.826Z,5.70
2023-04-07T04:26:07.471Z,5.80
2023-04-07T04:28:32.482Z,5.80
2023-04-07T04:30:58.859Z,5.80
2023-04-07T04:33:23.901Z,5.70
2023-04-07T04:35:52.687Z,5.80
2023-04-07T04:38:18.581Z,5.80
2023-04-07T04:40:51.621Z,5.70
2023-04-07T04:43:21.662Z,5.80
2023-04-07T04:45:46.271Z,5.90
2023-04-07T04:48:13.330Z,5.80
2023-04-07T04:50:37.963Z,5.70
2023-04-07T04:53:07.482Z,5.70
2023-04-07T04:55:32.212Z,5.70
2023-04-07T04:57:58.772Z,5.70
2023-04-07T05:00:41.642Z,5.70
2023-04-07T05:03:08.527Z,5.70
2023-04-07T05:05:57.042Z,5.70
2023-04-07T05:08:21.497Z,5.60
2023-04-07T05:10:46.717Z,5.40
2023-04-07T05:13:16.916Z,5.50
2023-04-07T05:15:43.507Z,5.50
2023-04-07T05:18:11.216Z,5.50
2023-04-07T05:20:36.542Z,5.50
2023-04-07T05:23:01.180Z,5.60
2023-04-07T05:25:30.033Z,5.70
2023-04-07T05:27:59.207Z,5.80
2023-04-07T05:30:25.202Z,5.80
2023-04-07T05:32:50.633Z,5.90
2023-04-07T05:35:25.202Z,5.90
2023-04-07T05:37:53.929Z,5.80
2023-04-07T05:40:19.549Z,5.70
2023-04-07T05:42:44.849Z,5.70
2023-04-07T05:45:11.883Z,5.80
2023-04-07T05:47:41.453Z,5.80
2023-04-07T05:50:08.960Z,5.80
2023-04-07T05:52:34.018Z,5.90
2023-04-07T05:55:09.018Z,6.10
2023-04-07T05:57:34.715Z,6.30
2023-04-07T06:00:01.410Z,6.30
2023-04-07T06:02:29.190Z,6.40
2023-04-07T06:04:56.663Z,6.20
2023-04-07T06:07:22.628Z,6.20
2023-04-07T06:09:47.284Z,6.40
2023-04-07T06:12:12.847Z,6.60
2023-04-07T06:14:37.409Z,6.90
2023-04-07T06:17:02.591Z,8.50
2023-04-07T06:19:27.667Z,10.00
2023-04-07T06:21:53.857Z,11.00
2023-04-07T06:24:18.854Z,11.90
2023-04-07T06:26:43.854Z,11.70
2023-04-07T06:29:15.374Z,10.80
2023-04-07T06:31:41.742Z,10.60
2023-04-07T06:34:10.110Z,10.10
2023-04-07T06:36:36.538Z,9.60
2023-04-07T06:39:06.810Z,9.20
2023-04-07T06:41:34.112Z,9.20
2023-04-07T06:43:59.158Z,9.20
2023-04-07T06:46:27.289Z,9.50
2023-04-07T06:48:55.618Z,9.60
2023-04-07T06:51:24.545Z,9.60
2023-04-07T06:53:52.714Z,9.80
2023-04-07T06:56:19.239Z,10.00
2023-04-07T06:58:44.652Z,10.10
2023-04-07T07:01:12.564Z,10.10
2023-04-07T07:03:42.975Z,10.10
2023-04-07T07:06:08.458Z,10.50
2023-04-07T07:08:35.239Z,10.70
2023-04-07T07:11:01.180Z,10.70
2023-04-07T07:13:28.446Z,10.90
2023-04-07T07:15:57.180Z,11.00
2023-04-07T07:18:22.554Z,11.10
2023-04-07T07:20:49.614Z,11.00
2023-04-07T07:23:15.602Z,10.90
2023-04-07T07:25:42.674Z,11.00
2023-04-07T07:28:07.553Z,10.80
2023-04-07T07:30:36.730Z,10.90
2023-04-07T07:33:02.081Z,11.10
2023-04-07T07:35:27.380Z,11.10
2023-04-07T07:37:52.481Z,11.20
2023-04-07T07:40:18.683Z,11.10
2023-04-07T07:42:46.492Z,11.10
2023-04-07T07:45:14.758Z,11.20
2023-04-07T07:47:42.123Z,11.20
2023-04-07T07:50:08.417Z,10.80
2023-04-07T07:52:33.596Z,10.70
2023-04-07T07:54:58.985Z,10.80
2023-04-07T07:57:25.801Z,10.80
2023-04-07T07:59:50.910Z,10.60
2023-04-07T08:02:18.423Z,10.60
2023-04-07T08:04:45.243Z,10.50
2023-04-07T08:07:11.596Z,10.40
2023-04-07T08:09:36.626Z,10.50
2023-04-07T08:12:24.790Z,10.30
2023-04-07T08:14:50.866Z,10.30
2023-04-07T08:17:15.791Z,10.60
2023-04-07T08:19:41.157Z,10.70
2023-04-07T08:22:08.105Z,11.00
2023-04-07T08:24:33.536Z,11.30
2023-04-07T08:27:00.136Z,11.40
2023-04-07T08:29:25.216Z,11.40
2023-04-07T08:31:50.252Z,11.50
2023-04-07T08:34:16.747Z,11.60
2023-04-07T08:36:44.100Z,11.70
2023-04-07T08:39:10.255Z,11.60
2023-04-07T08:41:38.867Z,11.70
2023-04-07T08:44:04.500Z,11.90
2023-04-07T08:46:30.640Z,11.50
2023-04-07T08:48:58.208Z,11.50
2023-04-07T08:51:28.785Z,11.60
2023-04-07T08:53:56.711Z,11.70
2023-04-07T08:56:25.270Z,11.70
2023-04-07T08:58:53.616Z,11.80
2023-04-07T09:01:19.526Z,11.60
2023-04-07T09:03:46.189Z,11.70
2023-04-07T09:06:12.766Z,12.10
2023-04-07T09:08:38.905Z,12.20
2023-04-07T09:11:04.450Z,12.10
2023-04-07T09:13:34.154Z,12.40
2023-04-07T09:16:02.198Z,12.40
2023-04-07T09:18:30.829Z,12.30
2023-04-07T09:21:03.534Z,12.50
2023-04-07T09:23:33.619Z,12.80
2023-04-07T09:26:02.231Z,13.00
2023-04-07T09:28:27.561Z,13.00
2023-04-07T09:30:57.337Z,12.90
2023-04-07T09:33:34.892Z,12.60
2023-04-07T09:36:03.668Z,12.50
2023-04-07T09:38:35.512Z,12.50
2023-04-07T09:41:09.957Z,12.80
2023-04-07T09:43:47.209Z,13.00
2023-04-07T09:46:15.791Z,13.10
2023-04-07T09:48:43.922Z,13.10
2023-04-07T09:51:18.879Z,12.80
2023-04-07T09:53:50.413Z,12.80
2023-04-07T09:56:17.599Z,12.80
2023-04-07T09:58:44.661Z,12.50
2023-04-07T10:01:10.850Z,12.70
2023-04-07T10:03:39.088Z,12.60
2023-04-07T10:06:04.375Z,12.30
2023-04-07T10:08:31.821Z,12.20
2023-04-07T10:10:58.987Z,12.40
2023-04-07T10:13:34.539Z,12.50
2023-04-07T10:16:00.324Z,12.50
2023-04-07T10:18:29.804Z,12.60
2023-04-07T10:20:57.296Z,12.50
2023-04-07T10:23:27.526Z,12.30
2023-04-07T10:26:03.559Z,11.90
2023-04-07T10:28:29.966Z,11.50
2023-04-07T10:30:55.252Z,11.30
2023-04-07T10:33:20.291Z,11.40
2023-04-07T10:36:16.752Z,11.40
2023-04-07T10:38:41.732Z,11.50
2023-04-07T10:41:35.039Z,11.30
2023-04-07T10:43:59.922Z,11.30
2023-04-07T10:46:24.909Z,11.30
2023-04-07T10:49:11.787Z,11.30
2023-04-07T10:51:37.812Z,10.80
2023-04-07T10:54:17.839Z,10.70
2023-04-07T10:57:01.138Z,10.60
2023-04-07T10:59:27.915Z,10.60
2023-04-07T11:02:21.238Z,10.50
2023-04-07T11:04:48.322Z,10.60
2023-04-07T11:07:16.553Z,10.70
2023-04-07T11:09:42.369Z,10.80
2023-04-07T11:12:07.100Z,10.80
2023-04-07T11:14:41.598Z,10.60
2023-04-07T11:17:09.102Z,10.60
2023-04-07T11:19:52.818Z,10.70
2023-04-07T11:24:48.108Z,10.50
2023-04-07T11:27:15.024Z,10.40
2023-04-07T11:29:39.862Z,10.50
2023-04-07T11:32:04.445Z,10.50
2023-04-07T11:34:31.790Z,10.50
2023-04-07T11:36:59.590Z,10.50
2023-04-07T11:39:28.202Z,10.60
2023-04-07T11:41:52.746Z,10.80
2023-04-07T11:44:17.510Z,11.00
2023-04-07T11:46:54.959Z,11.30
2023-04-07T11:49:19.684Z,11.40
2023-04-07T11:51:45.472Z,11.60
2023-04-07T11:54:10.216Z,11.90
2023-04-07T11:56:46.607Z,12.00
2023-04-07T11:59:22.921Z,11.90
2023-04-07T12:01:48.384Z,12.00
2023-04-07T12:04:16.042Z,11.90
2023-04-07T12:06:42.601Z,11.70
2023-04-07T12:09:07.465Z,11.60
2023-04-07T12:11:32.858Z,11.60
2023-04-07T12:13:58.800Z,11.50
2023-04-07T12:16:23.379Z,11.60
2023-04-07T12:18:47.863Z,11.70
2023-04-07T12:21:12.587Z,11.60
2023-04-07T12:23:37.046Z,11.40
2023-04-07T12:26:02.386Z,11.30
2023-04-07T12:28:27.756Z,11.10
2023-04-07T12:30:53.768Z,11.00
2023-04-07T12:33:18.254Z,11.00
2023-04-07T12:35:42.881Z,11.00
2023-04-07T12:38:08.302Z,10.90
2023-04-07T12:40:32.777Z,11.00
2023-04-07T12:42:58.312Z,11.20
2023-04-07T12:45:23.143Z,11.20
2023-04-07T12:47:49.075Z,11.30
2023-04-07T12:50:13.676Z,11.30
2023-04-07T12:52:38.305Z,11.20
2023-04-07T12:55:02.934Z,10.90
2023-04-07T12:57:27.689Z,10.90
2023-04-07T12:59:53.368Z,10.80
2023-04-07T13:02:19.390Z,10.80
2023-04-07T13:04:47.045Z,10.80
2023-04-07T13:07:11.558Z,10.80
2023-04-07T13:09:36.288Z,10.70
2023-04-07T13:12:00.729Z,10.60
2023-04-07T13:14:25.550Z,10.50
2023-04-07T13:16:49.979Z,10.30
2023-04-07T13:19:14.604Z,10.30
2023-04-07T13:21:46.751Z,10.30
2023-04-07T13:24:12.221Z,10.20
2023-04-07T13:26:36.645Z,10.10
2023-04-07T13:29:01.337Z,10.20
2023-04-07T13:31:25.872Z,10.30
2023-04-07T13:33:50.860Z,10.50
2023-04-07T13:36:15.591Z,10.60
2023-04-07T13:38:42.470Z,10.80
2023-04-07T13:41:07.286Z,10.70
2023-04-07T13:43:31.864Z,10.70
2023-04-07T13:45:56.807Z,10.70
2023-04-07T13:48:21.714Z,10.70
2023-04-07T13:50:46.249Z,10.70
2023-04-07T13:53:10.820Z,10.70
2023-04-07T13:55:36.829Z,10.70
2023-04-07T13:58:01.415Z,10.70
2023-04-07T14:00:26.318Z,10.70
2023-04-07T14:02:50.973Z,10.80
2023-04-07T14:05:15.570Z,10.80
2023-04-07T14:07:40.113Z,10.80
2023-04-07T14:10:04.828Z,10.60
2023-04-07T14:12:30.759Z,10.50
2023-04-07T14:14:55.573Z,10.60
2023-04-07T14:17:20.676Z,10.50
2023-04-07T14:19:45.211Z,10.50
2023-04-07T14:22:09.795Z,10.40
2023-04-07T14:24:34.290Z,10.40
2023-04-07T14:26:59.039Z,10.50
2023-04-07T14:29:24.956Z,10.50
2023-04-07T14:31:49.792Z,10.40
2023-04-07T14:34:14.279Z,10.30
2023-04-07T14:36:38.844Z,10.20
2023-04-07T14:39:03.979Z,10.20
2023-04-07T14:41:28.956Z,10.10
2023-04-07T14:43:56.479Z,10.00
2023-04-07T14:46:22.674Z,9.90
2023-04-07T14:48:47.331Z,9.80
2023-04-07T14:51:15.359Z,9.90
2023-04-07T14:53:39.921Z,9.80
2023-04-07T14:56:06.142Z,9.70
2023-04-07T14:58:30.657Z,9.70
2023-04-07T15:00:55.325Z,9.80
2023-04-07T15:03:21.450Z,9.70
2023-04-07T15:05:46.447Z,9.70
2023-04-07T15:08:11.044Z,9.70
2023-04-07T15:10:35.828Z,9.60
2023-04-07T15:13:00.340Z,9.50
2023-04-07T15:15:26.116Z,9.40
2023-04-07T15:17:50.691Z,9.30
2023-04-07T15:20:16.706Z,9.30
2023-04-07T15:22:41.295Z,9.50
2023-04-07T15:25:06.429Z,9.50
2023-04-07T15:27:30.875Z,9.50
2023-04-07T15:29:55.434Z,9.40
2023-04-07T15:32:19.941Z,9.40
2023-04-07T15:34:44.569Z,9.30
2023-04-07T15:37:10.742Z,9.30
2023-04-07T15:39:35.390Z,9.30
2023-04-07T15:41:59.855Z,9.30
2023-04-07T15:44:24.515Z,9.30
2023-04-07T15:46:49.630Z,9.30
2023-04-07T15:49:14.367Z,9.30
2023-04-07T15:51:38.985Z,9.20
2023-04-07T15:54:04.935Z,9.10
2023-04-07T15:56:29.400Z,9.20
2023-04-07T15:58:53.922Z,9.10
2023-04-07T16:01:18.424Z,9.10
2023-04-07T16:03:43.054Z,9.20
2023-04-07T16:06:07.694Z,9.10
2023-04-07T16:08:32.327Z,9.30
2023-04-07T16:10:58.188Z,9.30
2023-04-07T16:13:22.888Z,9.10
2023-04-07T16:15:47.410Z,9.00
2023-04-07T16:18:12.805Z,9.10
2023-04-07T16:20:37.376Z,9.10
2023-04-07T16:23:01.987Z,9.10
2023-04-07T16:25:26.620Z,9.10
2023-04-07T16:27:53.781Z,9.00
2023-04-07T16:30:18.622Z,9.00
2023-04-07T16:32:44.698Z,9.00
2023-04-07T16:35:10.746Z,9.00
2023-04-07T16:37:35.415Z,9.00
2023-04-07T16:40:00.688Z,8.90
2023-04-07T16:42:28.606Z,8.90
2023-04-07T16:44:54.548Z,8.80
2023-04-07T16:47:19.332Z,8.80
2023-04-07T16:49:46.700Z,8.80
2023-04-07T16:52:11.279Z,8.80
2023-04-07T16:54:36.262Z,8.80
2023-04-07T16:57:00.835Z,8.80
2023-04-07T16:59:25.604Z,8.70
2023-04-07T17:01:51.615Z,8.70
2023-04-07T17:04:16.196Z,8.60
2023-04-07T17:06:43.584Z,8.60
2023-04-07T17:09:08.098Z,8.60
2023-04-07T17:11:32.695Z,8.70
2023-04-07T17:13:57.906Z,8.60
2023-04-07T17:16:22.606Z,8.70
2023-04-07T17:18:48.806Z,8.70
2023-04-07T17:21:13.706Z,8.60
2023-04-07T17:23:38.490Z,8.60
2023-04-07T17:26:03.201Z,8.70
2023-04-07T17:28:30.027Z,8.60
2023-04-07T17:30:56.056Z,8.60
2023-04-07T17:33:20.873Z,8.70
2023-04-07T17:35:49.977Z,8.70
2023-04-07T17:38:14.512Z,8.70
2023-04-07T17:40:39.130Z,8.70
2023-04-07T17:43:03.722Z,8.70
2023-04-07T17:45:28.433Z,8.80
2023-04-07T17:47:53.370Z,8.70
2023-04-07T17:50:18.358Z,8.70
2023-04-07T17:52:45.254Z,8.70
2023-04-07T17:55:10.886Z,8.70
2023-04-07T17:57:37.360Z,8.70
2023-04-07T18:00:01.842Z,8.60
2023-04-07T18:02:26.879Z,8.70
2023-04-07T18:04:54.761Z,8.70
2023-04-07T18:07:19.291Z,8.70
2023-04-07T18:09:45.412Z,8.70
2023-04-07T18:12:10.108Z,8.80
2023-04-07T18:14:34.700Z,8.70
2023-04-07T18:16:59.320Z,8.60
2023-04-07T18:19:24.281Z,8.60
2023-04-07T18:21:50.364Z,8.80
2023-04-07T18:24:17.460Z,8.80
2023-04-07T18:26:45.021Z,8.70
2023-04-07T18:29:13.585Z,8.70
2023-04-07T18:31:43.317Z,8.80
2023-04-07T18:34:08.468Z,8.90
2023-04-07T18:36:33.284Z,8.90
2023-04-07T18:39:00.762Z,8.90
2023-04-07T18:41:25.266Z,8.90
2023-04-07T18:43:53.711Z,8.90
2023-04-07T18:46:18.394Z,8.80
2023-04-07T18:48:44.551Z,8.80
2023-04-07T18:51:09.344Z,8.80
2023-04-07T18:53:39.393Z,8.80
2023-04-07T18:56:04.380Z,8.80
2023-04-07T18:58:28.972Z,8.80
2023-04-07T19:00:55.060Z,8.90
2023-04-07T19:03:20.009Z,8.90
2023-04-07T19:05:47.655Z,8.90
2023-04-07T19:08:12.461Z,8.80
2023-04-07T19:10:40.847Z,8.90
2023-04-07T19:13:07.380Z,8.90
2023-04-07T19:15:34.501Z,8.90
2023-04-07T19:18:00.609Z,8.90
2023-04-07T19:20:25.663Z,9.00
2023-04-07T19:22:52.504Z,9.00
2023-04-07T19:25:20.040Z,9.00
2023-04-07T19:27:44.877Z,9.00
2023-04-07T19:30:22.377Z,9.10
2023-04-07T19:32:50.452Z,9.00
2023-04-07T19:35:17.186Z,9.00
2023-04-07T19:37:42.239Z,8.90
2023-04-07T19:40:07.789Z,9.00
2023-04-07T19:42:32.525Z,8.90
2023-04-07T19:44:58.458Z,8.90
2023-04-07T19:47:23.449Z,8.90
2023-04-07T19:49:48.507Z,8.90
2023-04-07T19:52:14.534Z,8.90
2023-04-07T19:54:39.059Z,8.90
2023-04-07T19:57:03.725Z,8.90
2023-04-07T19:59:28.224Z,9.00
2023-04-07T20:01:53.505Z,9.00
2023-04-07T20:04:18.177Z,8.90
2023-04-07T20:06:42.820Z,8.90
2023-04-07T20:09:08.921Z,8.90
2023-04-07T20:11:33.431Z,8.90
2023-04-07T20:13:57.942Z,9.00
2023-04-07T20:16:22.554Z,9.00
2023-04-07T20:18:48.166Z,8.90
2023-04-07T20:21:13.576Z,8.90
2023-04-07T20:23:44.360Z,8.80
2023-04-07T20:26:13.104Z,8.70
2023-04-07T20:28:39.695Z,8.70
2023-04-07T20:31:05.087Z,8.60
2023-04-07T20:33:29.935Z,8.50
2023-04-07T20:35:54.865Z,8.60
2023-04-07T20:38:20.345Z,8.70
2023-04-07T20:40:46.339Z,8.60
2023-04-07T20:43:12.366Z,8.60
2023-04-07T20:45:37.280Z,8.60
2023-04-07T20:48:01.842Z,8.60
2023-04-07T20:50:27.131Z,8.40
2023-04-07T20:52:52.704Z,8.40
2023-04-07T20:55:17.383Z,8.20
2023-04-07T20:57:42.555Z,8.20
2023-04-07T21:00:10.365Z,8.30
2023-04-07T21:02:36.026Z,8.30
2023-04-07T21:05:01.634Z,8.40
2023-04-07T21:07:27.964Z,8.40
2023-04-07T21:09:53.020Z,8.50
2023-04-07T21:12:17.856Z,8.40
2023-04-07T21:14:43.058Z,8.40
2023-04-07T21:17:09.439Z,8.40
2023-04-07T21:19:34.803Z,8.40
2023-04-07T21:22:00.604Z,8.20
2023-04-07T21:24:25.226Z,8.20
2023-04-07T21:26:49.904Z,8.30
2023-04-07T21:29:14.614Z,8.30
2023-04-07T21:31:39.789Z,8.40
2023-04-07T21:34:06.170Z,8.50
2023-04-07T21:36:31.646Z,8.50
2023-04-07T21:38:56.276Z,8.50
2023-04-07T21:41:21.231Z,8.50
2023-04-07T21:43:46.229Z,8.50
2023-04-07T21:46:10.947Z,8.40
2023-04-07T21:48:36.047Z,8.40
2023-04-07T21:51:03.201Z,8.40
2023-04-07T21:53:27.870Z,8.40
2023-04-07T21:55:52.642Z,8.30
2023-04-07T21:58:17.252Z,8.40
2023-04-07T22:00:42.114Z,8.40
2023-04-07T22:03:07.266Z,8.40
2023-04-07T22:05:32.555Z,8.40
2023-04-07T22:07:58.691Z,8.40
2023-04-07T22:10:23.418Z,8.50
2023-04-07T22:12:48.062Z,8.50
2023-04-07T22:15:14.090Z,8.40
2023-04-07T22:17:40.136Z,8.40
2023-04-07T22:20:05.747Z,8.30
2023-04-07T22:22:30.654Z,8.30
2023-04-07T22:24:56.912Z,8.20
2023-04-07T22:27:21.596Z,8.20
2023-04-07T22:29:46.765Z,8.20
2023-04-07T22:32:13.530Z,8.20
2023-04-07T22:34:38.457Z,8.20
2023-04-07T22:37:03.105Z,8.10
2023-04-07T22:39:30.851Z,8.20
2023-04-07T22:41:57.037Z,8.10
2023-04-07T22:44:22.078Z,8.20
2023-04-07T22:46:46.701Z,8.20
2023-04-07T22:49:11.669Z,8.20
2023-04-07T22:51:37.734Z,8.10
2023-04-07T22:54:02.384Z,8.20
2023-04-07T22:56:27.388Z,8.10
2023-04-07T22:58:53.648Z,8.10
2023-04-07T23:01:18.712Z,8.10
2023-04-07T23:03:43.869Z,8.10
2023-04-07T23:06:08.810Z,8.10
2023-04-07T23:08:33.533Z,8.20
2023-04-07T23:10:58.196Z,8.10
2023-04-07T23:13:23.124Z,8.20
2023-04-07T23:15:49.173Z,8.20
2023-04-07T23:18:13.803Z,8.20
2023-04-07T23:20:38.433Z,8.20
2023-04-07T23:23:03.567Z,8.20
2023-04-07T23:25:39.767Z,8.10
2023-04-07T23:28:05.800Z,8.20
2023-04-07T23:30:30.634Z,8.10
2023-04-07T23:32:56.829Z,8.10
2023-04-07T23:35:21.535Z,8.20
2023-04-07T23:37:46.119Z,8.20
2023-04-07T23:40:11.750Z,8.20
2023-04-07T23:42:36.958Z,8.20
2023-04-07T23:45:01.458Z,8.20
2023-04-07T23:47:28.007Z,8.30
2023-04-07T23:49:54.509Z,8.10
2023-04-07T23:52:21.622Z,8.20
2023-04-07T23:54:46.649Z,8.20
2023-04-07T23:57:11.815Z,8.20
2023-04-07T23:59:36.519Z,8.20
